KHGR/HGR METAR and TAF weather

Enter ICAO airport designator
Station Type Date Time Source
KHGR METAR 2019/04/18 21:53 UTC NOAA

KHGR 182153Z 16015KT 10SM CLR 24/11 A2980 RMK AO2 SLP099 T02390111


Station Type Date Time Source
KHGR Decoded METAR 2019/04/18 21:53 UTC NOAA

HAGERSTOWN REGIONAL AIRPORT, MD, United States (KHGR) 39-42N 077-44W 224M
Apr 18, 2019 - 05:53 PM EDT / 2019.04.18 2153 UTC
Wind: from the SSE (160 degrees) at 17 MPH (15 KT):0
Visibility: 10 mile(s):0
Sky conditions: clear
Temperature: 75.0 F (23.9 C)
Dew Point: 52.0 F (11.1 C)
Relative Humidity: 44%
Pressure (altimeter): 29.8 in. Hg (1009 hPa)
ob: KHGR 182153Z 16015KT 10SM CLR 24/11 A2980 RMK AO2 SLP099 T02390111
cycle: 22

Station Type Date Time Source
KHGR TAF UTC NOAA

Error!

Example: see airport list